Time;durP1;ratioP1;P1;durP2;ratioP2;P2;SDS_P1;SDS_P2;PMS_P1;PMS_P2;Temp;Humidity;BMP_temperature;BMP_pressure;BME280_temperature;BME280_humidity;BME280_pressure;Samples;Min_cycle;Max_cycle;Signal;HPM_P1;HPM_P2
2022/08/06 00:01:41;;;;;;;1.15;0.90;;;21.20;49.60;;;;;;4941621;29;20038;-82
2022/08/06 00:04:07;;;;;;;1.20;0.90;;;21.20;49.70;;;;;;4942028;29;20035;-81
2022/08/06 00:06:33;;;;;;;1.80;0.80;;;21.10;49.70;;;;;;4960344;29;20034;-82
2022/08/06 00:08:59;;;;;;;1.15;0.75;;;21.10;49.70;;;;;;4929877;29;20031;-84
2022/08/06 00:11:25;;;;;;;1.65;0.98;;;21.10;49.80;;;;;;4932020;29;20031;-81
2022/08/06 00:13:50;;;;;;;1.88;1.00;;;21.10;49.80;;;;;;4945595;29;20051;-81
2022/08/06 00:16:16;;;;;;;1.85;0.90;;;21.00;49.90;;;;;;4941190;29;20110;-82
2022/08/06 00:18:43;;;;;;;1.20;0.80;;;21.00;49.90;;;;;;4925226;29;20082;-81
2022/08/06 00:21:09;;;;;;;1.05;0.85;;;20.90;50.00;;;;;;4909235;29;20047;-81
2022/08/06 00:23:35;;;;;;;1.27;0.90;;;20.90;50.00;;;;;;4940190;29;20047;-81
2022/08/06 00:26:01;;;;;;;0.77;0.77;;;20.90;50.10;;;;;;4924535;29;20031;-81
2022/08/06 00:28:26;;;;;;;1.33;0.98;;;20.90;50.10;;;;;;4924958;29;20038;-83
2022/08/06 00:30:55;;;;;;;1.27;0.90;;;20.80;50.20;;;;;;4924659;29;20034;-81
2022/08/06 00:33:21;;;;;;;1.05;0.75;;;20.80;50.20;;;;;;4939897;29;20031;-81
2022/08/06 00:35:47;;;;;;;1.63;0.80;;;20.80;50.30;;;;;;4941186;29;20456;-81
2022/08/06 00:38:13;;;;;;;1.30;1.10;;;20.70;50.30;;;;;;4909378;29;20034;-82
2022/08/06 00:40:39;;;;;;;1.42;0.90;;;20.70;50.30;;;;;;4940234;29;20464;-82
2022/08/06 00:43:05;;;;;;;2.10;0.82;;;20.70;50.40;;;;;;4940415;29;20043;-81
2022/08/06 00:45:32;;;;;;;2.08;1.10;;;20.60;50.40;;;;;;4924457;29;20114;-81
2022/08/06 00:47:59;;;;;;;0.80;0.80;;;20.60;50.50;;;;;;4940433;29;20035;-82
2022/08/06 00:50:25;;;;;;;0.77;0.70;;;20.60;50.60;;;;;;4957088;29;20027;-82
2022/08/06 00:52:51;;;;;;;0.98;0.90;;;20.50;50.60;;;;;;4940265;29;20062;-81
2022/08/06 00:55:17;;;;;;;1.88;0.90;;;20.50;50.60;;;;;;4940331;29;20094;-81
2022/08/06 00:57:43;;;;;;;1.08;0.85;;;20.50;50.70;;;;;;4908716;29;20039;-82
2022/08/06 01:00:09;;;;;;;1.05;0.90;;;20.40;50.70;;;;;;4940075;29;20037;-81
2022/08/06 01:02:35;;;;;;;1.20;0.88;;;20.40;50.70;;;;;;4923977;29;20045;-81
2022/08/06 01:05:01;;;;;;;1.27;1.00;;;20.40;50.80;;;;;;4956826;29;20106;-81
2022/08/06 01:07:27;;;;;;;1.90;0.98;;;20.40;50.90;;;;;;4924244;29;20035;-81
2022/08/06 01:09:53;;;;;;;1.02;0.88;;;20.40;50.90;;;;;;4940372;29;20027;-82
2022/08/06 01:12:19;;;;;;;1.35;1.02;;;20.30;50.90;;;;;;4923956;29;20058;-82
2022/08/06 01:14:45;;;;;;;1.15;0.90;;;20.30;51.00;;;;;;4923748;29;20520;-82
2022/08/06 01:17:18;;;;;;;1.73;0.88;;;20.20;51.00;;;;;;4956630;29;20110;-81
2022/08/06 01:19:43;;;;;;;1.52;1.00;;;20.30;51.10;;;;;;4924375;29;20069;-83
2022/08/06 01:22:27;;;;;;;1.80;0.80;;;20.20;51.10;;;;;;4940182;29;20082;-82
2022/08/06 01:25:11;;;;;;;1.33;0.85;;;20.10;51.10;;;;;;4940025;29;20035;-81
2022/08/06 01:28:01;;;;;;;0.88;0.75;;;20.10;51.30;;;;;;4923469;29;20030;-81
2022/08/06 01:30:33;;;;;;;0.90;0.82;;;20.10;51.20;;;;;;4957293;29;20035;-82
2022/08/06 01:33:10;;;;;;;1.17;0.98;;;20.00;51.30;;;;;;4939659;29;20057;-82
2022/08/06 01:35:40;;;;;;;1.70;1.00;;;20.00;51.40;;;;;;4938934;29;20457;-82
2022/08/06 01:38:17;;;;;;;1.02;0.88;;;20.00;51.40;;;;;;4923771;29;20027;-82
2022/08/06 01:40:49;;;;;;;2.35;0.90;;;20.00;51.50;;;;;;4923160;29;20027;-80
2022/08/06 01:43:23;;;;;;;1.00;0.82;;;19.90;51.50;;;;;;4923412;29;20031;-82
2022/08/06 01:45:51;;;;;;;1.42;0.90;;;19.90;51.60;;;;;;4938575;29;20067;-84
2022/08/06 01:48:21;;;;;;;1.70;1.00;;;19.90;51.60;;;;;;4908069;29;20386;-82
2022/08/06 01:50:50;;;;;;;2.08;1.15;;;19.80;51.60;;;;;;4923674;29;20034;-81
2022/08/06 01:53:23;;;;;;;1.77;0.90;;;19.90;51.70;;;;;;4923157;29;20035;-81
2022/08/06 01:55:53;;;;;;;2.17;1.00;;;19.80;51.70;;;;;;4923491;29;20027;-83
2022/08/06 01:58:24;;;;;;;1.33;1.08;;;19.80;51.80;;;;;;4938489;29;20039;-81
2022/08/06 02:00:52;;;;;;;0.98;0.90;;;19.70;51.80;;;;;;4956849;29;20456;-82
2022/08/06 02:03:25;;;;;;;1.60;0.93;;;19.70;51.80;;;;;;4938748;29;20114;-81
2022/08/06 02:05:54;;;;;;;1.08;0.90;;;19.70;51.90;;;;;;4955848;29;20101;-80
2022/08/06 02:08:26;;;;;;;2.00;1.00;;;19.70;52.50;;;;;;4938623;29;20499;-82
2022/08/06 02:10:54;;;;;;;1.63;0.90;;;19.60;51.90;;;;;;4938279;29;20484;-82
2022/08/06 02:13:23;;;;;;;1.42;0.90;;;19.70;52.00;;;;;;4923072;29;20047;-81
2022/08/06 02:15:51;;;;;;;1.63;0.95;;;19.60;52.00;;;;;;4922571;29;20078;-83
2022/08/06 02:18:20;;;;;;;1.38;1.00;;;19.60;52.10;;;;;;4939125;29;20067;-81
2022/08/06 02:20:49;;;;;;;1.38;0.90;;;19.60;52.10;;;;;;4955417;29;20121;-81
2022/08/06 02:23:21;;;;;;;1.35;0.80;;;19.50;52.10;;;;;;4922550;29;20042;-81
2022/08/06 02:25:49;;;;;;;1.75;0.82;;;19.50;52.20;;;;;;4922392;29;20031;-81
2022/08/06 02:28:18;;;;;;;0.80;0.80;;;19.50;52.20;;;;;;4923360;29;20038;-81
2022/08/06 02:30:47;;;;;;;1.48;0.93;;;19.40;52.20;;;;;;4938189;29;20531;-81
2022/08/06 02:33:14;;;;;;;1.10;1.00;;;19.40;52.20;;;;;;4922612;29;20050;-82
2022/08/06 02:35:48;;;;;;;0.85;0.85;;;19.40;52.30;;;;;;4922726;29;20114;-83
2022/08/06 02:38:24;;;;;;;1.50;1.00;;;19.40;53.10;;;;;;4938406;29;20066;-82
2022/08/06 02:41:01;;;;;;;1.42;0.95;;;19.40;53.10;;;;;;4922306;29;20027;-81
2022/08/06 02:43:34;;;;;;;0.93;0.93;;;19.30;52.40;;;;;;4938339;29;20046;-82
2022/08/06 02:46:23;;;;;;;0.80;0.80;;;19.30;52.50;;;;;;4938588;29;20046;-81
2022/08/06 02:49:14;;;;;;;1.00;0.90;;;19.30;52.70;;;;;;4914782;29;20436;-82
2022/08/06 02:51:47;;;;;;;1.27;0.95;;;19.20;52.60;;;;;;4922825;29;20457;-82
2022/08/06 02:54:27;;;;;;;1.73;1.10;;;19.20;52.60;;;;;;4938490;29;20066;-81
2022/08/06 02:57:01;;;;;;;2.10;1.10;;;19.20;52.70;;;;;;4921718;29;20074;-81
2022/08/06 02:59:31;;;;;;;1.63;0.90;;;19.20;52.70;;;;;;4922551;29;20102;-82
2022/08/06 03:02:00;;;;;;;2.20;1.20;;;19.10;52.70;;;;;;4937964;29;20122;-82
2022/08/06 03:04:29;;;;;;;1.17;0.90;;;19.10;52.70;;;;;;4922935;29;20055;-81
2022/08/06 03:06:58;;;;;;;0.70;0.70;;;19.10;52.80;;;;;;4944103;29;20031;-81
2022/08/06 03:09:25;;;;;;;1.15;1.00;;;19.10;52.80;;;;;;4939105;29;20043;-81
2022/08/06 03:11:52;;;;;;;1.30;0.93;;;19.10;52.90;;;;;;4922938;29;20035;-81
2022/08/06 03:14:22;;;;;;;1.98;1.25;;;19.00;52.80;;;;;;4894913;29;20056;-80
2022/08/06 03:16:49;;;;;;;1.17;0.90;;;19.00;52.90;;;;;;4903263;29;20071;-81
2022/08/06 03:19:17;;;;;;;0.80;0.80;;;19.00;52.90;;;;;;4903138;29;20114;-81
2022/08/06 03:21:45;;;;;;;0.90;0.90;;;19.00;53.00;;;;;;4903149;29;20030;-81
2022/08/06 03:24:13;;;;;;;1.30;0.95;;;18.90;52.90;;;;;;4919850;29;20040;-83
2022/08/06 03:26:40;;;;;;;1.05;0.88;;;19.00;53.00;;;;;;4904237;29;20040;-81
2022/08/06 03:29:07;;;;;;;1.63;1.00;;;18.90;53.00;;;;;;4903460;29;20028;-81
2022/08/06 03:31:33;;;;;;;1.80;1.10;;;18.90;53.10;;;;;;4919693;29;20038;-80
2022/08/06 03:33:59;;;;;;;2.50;1.05;;;18.90;53.10;;;;;;4903814;29;20119;-81
2022/08/06 03:36:27;;;;;;;1.63;0.90;;;18.90;53.10;;;;;;4919248;29;20054;-81
2022/08/06 03:38:57;;;;;;;2.70;0.90;;;18.80;53.10;;;;;;4918875;29;20035;-80
2022/08/06 03:41:25;;;;;;;0.95;0.80;;;18.80;53.20;;;;;;4919444;29;20035;-81
2022/08/06 03:43:52;;;;;;;0.82;0.80;;;18.80;53.20;;;;;;4935527;29;20480;-82
2022/08/06 03:46:29;;;;;;;1.65;0.90;;;18.70;53.20;;;;;;4903214;29;20106;-81
2022/08/06 03:48:58;;;;;;;0.98;0.73;;;18.70;53.30;;;;;;4919317;29;20113;-84
2022/08/06 03:51:28;;;;;;;1.77;1.30;;;18.70;53.30;;;;;;4903158;29;20059;-81
2022/08/06 03:53:54;;;;;;;1.20;0.98;;;18.70;53.30;;;;;;4918722;29;20042;-83
2022/08/06 03:56:23;;;;;;;1.42;1.00;;;18.70;53.30;;;;;;4919147;29;20107;-82
2022/08/06 03:58:52;;;;;;;1.35;1.10;;;18.60;53.30;;;;;;4903390;29;20023;-81
2022/08/06 04:01:23;;;;;;;1.08;0.98;;;18.70;53.40;;;;;;4918903;29;20048;-82
2022/08/06 04:03:51;;;;;;;1.25;1.00;;;18.60;53.40;;;;;;4903722;29;20032;-81
2022/08/06 04:06:23;;;;;;;1.73;1.15;;;18.60;53.40;;;;;;4903817;29;20027;-81
2022/08/06 04:08:52;;;;;;;2.08;1.05;;;18.60;53.50;;;;;;4904344;29;20079;-80
2022/08/06 04:11:19;;;;;;;1.63;1.00;;;18.60;53.50;;;;;;4922222;29;20043;-81
2022/08/06 04:13:46;;;;;;;0.85;0.85;;;18.50;53.50;;;;;;4929295;29;20043;-81
2022/08/06 04:16:13;;;;;;;1.00;0.90;;;18.50;53.50;;;;;;4909481;29;20066;-84
2022/08/06 04:18:41;;;;;;;1.20;1.10;;;18.50;53.50;;;;;;4941458;29;20040;-81
2022/08/06 04:21:11;;;;;;;1.02;0.85;;;18.50;53.60;;;;;;4941478;29;20027;-82
2022/08/06 04:23:38;;;;;;;1.25;1.00;;;18.40;53.60;;;;;;4940985;29;20432;-82
2022/08/06 04:26:06;;;;;;;1.73;1.13;;;18.50;53.60;;;;;;4941606;29;20072;-80
2022/08/06 04:28:36;;;;;;;0.95;0.95;;;18.40;53.70;;;;;;4925082;29;20535;-80
2022/08/06 04:31:02;;;;;;;1.02;1.00;;;18.40;53.70;;;;;;4941115;29;20515;-80
2022/08/06 04:33:33;;;;;;;0.90;0.85;;;18.40;53.70;;;;;;4941722;29;20091;-81
2022/08/06 04:36:04;;;;;;;1.30;1.02;;;18.40;53.80;;;;;;4943238;29;20048;-82
2022/08/06 04:38:32;;;;;;;1.20;1.10;;;18.30;53.80;;;;;;4961734;29;20086;-81
2022/08/06 04:40:59;;;;;;;1.30;1.02;;;18.40;53.90;;;;;;4929954;29;20031;-79
2022/08/06 04:43:29;;;;;;;0.90;0.90;;;18.30;53.80;;;;;;4941130;29;20054;-80
2022/08/06 04:45:56;;;;;;;1.20;1.08;;;18.30;53.90;;;;;;4940685;29;20027;-82
2022/08/06 04:48:23;;;;;;;1.20;1.00;;;18.30;53.90;;;;;;4957357;29;20055;-80
2022/08/06 04:50:49;;;;;;;1.30;0.95;;;18.30;54.00;;;;;;4923880;29;20058;-82
2022/08/06 04:53:18;;;;;;;2.30;1.00;;;18.30;54.00;;;;;;4940208;29;20039;-81
2022/08/06 04:55:45;;;;;;;1.35;1.00;;;18.20;54.10;;;;;;4957029;29;20034;-81
2022/08/06 04:58:13;;;;;;;2.60;1.10;;;18.30;54.20;;;;;;4940137;29;20495;-80
2022/08/06 05:00:42;;;;;;;1.55;1.00;;;18.20;54.20;;;;;;4941187;29;20031;-81
2022/08/06 05:03:08;;;;;;;1.27;0.98;;;18.20;54.20;;;;;;4939718;29;20043;-80
2022/08/06 05:05:38;;;;;;;2.25;1.10;;;18.20;54.20;;;;;;4924950;29;20023;-81
2022/08/06 05:08:07;;;;;;;2.17;1.10;;;18.20;54.30;;;;;;4924341;29;20372;-82
2022/08/06 05:10:46;;;;;;;1.30;1.08;;;18.20;54.30;;;;;;4939871;29;20032;-81
2022/08/06 05:13:14;;;;;;;1.65;1.30;;;18.20;54.50;;;;;;4924310;28;20476;-80
2022/08/06 05:15:48;;;;;;;1.45;1.10;;;18.20;54.40;;;;;;4940506;29;20464;-81
2022/08/06 05:18:21;;;;;;;1.53;1.00;;;18.20;54.50;;;;;;4940098;29;20476;-79
2022/08/06 05:20:49;;;;;;;1.10;1.00;;;18.20;54.50;;;;;;4939788;29;20793;-80
2022/08/06 05:23:24;;;;;;;1.10;1.00;;;18.10;54.50;;;;;;4940282;29;20035;-82
2022/08/06 05:25:50;;;;;;;2.63;1.38;;;18.10;54.60;;;;;;4941656;29;20046;-82
2022/08/06 05:28:16;;;;;;;1.42;1.10;;;18.20;54.60;;;;;;4928384;29;20090;-82
2022/08/06 05:30:49;;;;;;;1.30;1.20;;;18.10;54.60;;;;;;4940255;29;20054;-81
2022/08/06 05:33:26;;;;;;;1.52;1.00;;;18.10;54.70;;;;;;4940338;29;20035;-82
2022/08/06 05:35:53;;;;;;;1.45;1.17;;;18.10;54.70;;;;;;4924762;29;20031;-82
2022/08/06 05:38:19;;;;;;;1.20;1.13;;;18.10;54.70;;;;;;4940545;29;20033;-80
2022/08/06 05:40:45;;;;;;;1.73;1.20;;;18.10;54.70;;;;;;4924384;29;20523;-81
2022/08/06 05:43:12;;;;;;;1.48;1.05;;;18.10;54.70;;;;;;4923415;29;20137;-81
2022/08/06 05:45:41;;;;;;;1.98;1.15;;;18.10;54.80;;;;;;4956207;29;20095;-80
2022/08/06 05:48:07;;;;;;;1.17;1.05;;;18.10;54.80;;;;;;4956343;29;20167;-84
2022/08/06 05:50:37;;;;;;;0.90;0.90;;;18.10;54.80;;;;;;4939124;29;20058;-80
2022/08/06 05:53:12;;;;;;;2.08;1.17;;;18.10;54.90;;;;;;4939591;29;20122;-84
2022/08/06 05:55:45;;;;;;;;;;;18.10;55.00;;;;;;4939662;29;20027;-83
2022/08/06 05:58:18;;;;;;;0.90;0.90;;;18.10;54.70;;;;;;4939555;29;19910;-82
2022/08/06 06:00:45;;;;;;;1.70;1.10;;;18.10;54.70;;;;;;4939307;29;20031;-83
2022/08/06 06:03:16;;;;;;;1.27;1.10;;;18.10;54.90;;;;;;4938871;29;20191;-83
2022/08/06 06:05:45;;;;;;;1.45;1.10;;;18.10;55.10;;;;;;4922869;29;20169;-82
2022/08/06 06:08:11;;;;;;;1.20;1.10;;;18.10;55.00;;;;;;4923423;29;20054;-83
2022/08/06 06:10:39;;;;;;;1.20;1.10;;;18.10;55.00;;;;;;4938992;29;20035;-83
2022/08/06 06:13:06;;;;;;;1.25;1.10;;;18.10;55.10;;;;;;4939012;29;20028;-84
2022/08/06 06:15:47;;;;;;;1.25;1.00;;;18.10;55.10;;;;;;4903861;29;20052;-83
2022/08/06 06:18:50;;;;;;;1.42;1.00;;;18.10;55.10;;;;;;4921072;29;20396;-85
2022/08/06 06:21:46;;;;;;;1.67;1.20;;;18.10;55.20;;;;;;4920679;29;20122;-84
2022/08/06 06:24:38;;;;;;;1.63;1.05;;;18.10;55.10;;;;;;4904510;29;20047;-83
2022/08/06 06:27:16;;;;;;;1.23;0.90;;;18.10;55.10;;;;;;4920989;29;20536;-86
2022/08/06 06:29:53;;;;;;;1.73;1.08;;;18.10;55.10;;;;;;4921564;29;20039;-87
2022/08/06 06:32:35;;;;;;;1.50;1.10;;;18.10;55.10;;;;;;4903076;29;20027;-88
2022/08/06 06:35:27;;;;;;;1.63;1.17;;;18.10;55.20;;;;;;4920337;29;20031;-85
2022/08/06 06:38:25;;;;;;;2.17;1.10;;;18.10;55.20;;;;;;4919634;29;20062;-83
2022/08/06 06:41:13;;;;;;;1.00;0.90;;;18.10;55.20;;;;;;4902310;29;20044;-85
2022/08/06 06:44:18;;;;;;;2.38;1.00;;;18.10;55.30;;;;;;4904325;29;20046;-86
2022/08/06 06:47:00;;;;;;;1.13;0.98;;;18.10;55.30;;;;;;4937111;29;20027;-86
2022/08/06 06:49:37;;;;;;;1.15;1.05;;;18.10;55.10;;;;;;4920354;29;20456;-84
2022/08/06 06:52:21;;;;;;;1.67;1.17;;;18.10;55.90;;;;;;4937002;29;20086;-87
2022/08/06 06:54:52;;;;;;;1.77;1.00;;;18.10;55.90;;;;;;4920790;29;20035;-84
2022/08/06 06:57:23;;;;;;;1.27;1.00;;;18.10;55.30;;;;;;4920618;29;20031;-83
2022/08/06 06:59:52;;;;;;;1.15;0.90;;;18.10;55.40;;;;;;4919612;29;20059;-84
2022/08/06 07:02:24;;;;;;;1.38;1.10;;;18.10;55.50;;;;;;4919269;29;20074;-86
2022/08/06 07:04:51;;;;;;;2.03;0.90;;;18.10;55.60;;;;;;4904619;29;20043;-82
2022/08/06 07:07:20;;;;;;;0.98;0.90;;;18.20;55.50;;;;;;4919631;29;20036;-82
2022/08/06 07:09:50;;;;;;;1.95;1.00;;;18.20;55.50;;;;;;4919763;29;20028;-85
2022/08/06 07:12:20;;;;;;;0.85;0.85;;;18.20;55.50;;;;;;4919654;29;20091;-81
2022/08/06 07:14:47;;;;;;;1.35;1.00;;;18.20;55.50;;;;;;4914014;29;20044;-82
2022/08/06 07:17:14;;;;;;;1.35;0.90;;;18.20;55.50;;;;;;4935435;29;20032;-83
2022/08/06 07:19:41;;;;;;;1.85;1.13;;;18.20;55.50;;;;;;4935301;29;20123;-84
2022/08/06 07:22:09;;;;;;;0.90;0.90;;;18.30;55.60;;;;;;4935818;29;20404;-91
2022/08/06 07:24:37;;;;;;;1.20;0.90;;;18.30;55.60;;;;;;4935077;29;20477;-86
2022/08/06 07:27:03;;;;;;;0.80;0.80;;;18.30;55.60;;;;;;4936034;29;20071;-85
2022/08/06 07:29:29;;;;;;;1.48;1.00;;;18.30;55.60;;;;;;4935722;29;20095;-84
2022/08/06 07:31:56;;;;;;;1.10;0.93;;;18.30;55.60;;;;;;4935448;29;20028;-84
2022/08/06 07:34:23;;;;;;;0.80;0.80;;;18.40;55.70;;;;;;4936182;29;20095;-84
2022/08/06 07:36:52;;;;;;;1.05;0.90;;;18.40;55.70;;;;;;4920259;29;20039;-83
2022/08/06 07:39:25;;;;;;;2.10;0.93;;;18.40;55.70;;;;;;4935554;29;20028;-85
2022/08/06 07:41:53;;;;;;;1.02;0.80;;;18.50;55.70;;;;;;4936129;29;20043;-85
2022/08/06 07:44:21;;;;;;;1.00;0.90;;;18.50;55.60;;;;;;4938746;29;20042;-85
2022/08/06 07:46:51;;;;;;;0.93;0.80;;;18.50;55.70;;;;;;4940765;29;20043;-84
2022/08/06 07:49:20;;;;;;;1.75;0.90;;;18.50;55.70;;;;;;4944160;29;20024;-86
2022/08/06 07:51:47;;;;;;;1.60;0.90;;;18.50;55.70;;;;;;4945101;29;20109;-86
2022/08/06 07:54:15;;;;;;;1.90;1.35;;;18.60;55.70;;;;;;4942123;29;20035;-86
2022/08/06 07:56:42;;;;;;;0.70;0.70;;;18.60;55.70;;;;;;4940212;29;20027;-86
2022/08/06 07:59:09;;;;;;;0.98;0.88;;;18.60;55.70;;;;;;4923569;29;20036;-86
2022/08/06 08:01:37;;;;;;;1.00;0.80;;;18.70;55.70;;;;;;4923346;29;20094;-87
2022/08/06 08:06:52;;;;;;;1.40;0.70;;;18.70;55.60;;;;;;4939467;29;20032;-86
2022/08/06 08:09:21;;;;;;;0.70;0.70;;;18.80;55.50;;;;;;4939359;29;20028;-85
2022/08/06 08:11:49;;;;;;;1.05;0.75;;;18.80;55.50;;;;;;4938371;29;20043;-86
2022/08/06 08:14:24;;;;;;;0.65;0.65;;;18.90;55.40;;;;;;4940902;29;20055;-84
2022/08/06 08:16:52;;;;;;;1.95;0.85;;;18.90;55.40;;;;;;4925714;29;20035;-85
2022/08/06 08:19:31;;;;;;;1.75;0.80;;;19.00;55.30;;;;;;4941758;29;20043;-86
2022/08/06 08:22:05;;;;;;;1.63;0.80;;;19.00;55.30;;;;;;4941780;29;20539;-88
2022/08/06 08:24:32;;;;;;;;;;;19.10;55.20;;;;;;4942277;29;20038;-86
2022/08/06 08:26:59;;;;;;;0.70;0.70;;;19.10;54.90;;;;;;4958678;29;20368;-85
2022/08/06 08:29:26;;;;;;;0.60;0.60;;;19.20;54.90;;;;;;4957734;29;20143;-83
2022/08/06 08:31:53;;;;;;;0.70;0.70;;;19.20;54.90;;;;;;4958594;29;20117;-87
2022/08/06 08:34:19;;;;;;;0.80;0.80;;;19.30;54.90;;;;;;4941459;29;20035;-86
2022/08/06 08:36:44;;;;;;;1.15;0.77;;;19.40;54.80;;;;;;4925649;29;20034;-85
2022/08/06 08:39:10;;;;;;;1.00;0.82;;;19.50;54.80;;;;;;4941071;29;20036;-85
2022/08/06 08:41:40;;;;;;;0.80;0.80;;;19.50;54.70;;;;;;4941305;29;20102;-82
2022/08/06 08:44:08;;;;;;;0.95;0.77;;;19.60;54.70;;;;;;4940925;29;20495;-84
2022/08/06 08:46:44;;;;;;;0.63;0.60;;;19.70;54.60;;;;;;4909319;29;20031;-84
2022/08/06 08:49:34;;;;;;;1.20;0.70;;;19.80;54.50;;;;;;4940790;29;20115;-84
2022/08/06 08:52:01;;;;;;;0.85;0.77;;;19.80;55.10;;;;;;4940753;29;20054;-83
2022/08/06 08:54:31;;;;;;;0.70;0.70;;;19.90;54.30;;;;;;4940296;29;20027;-86
2022/08/06 08:56:57;;;;;;;0.82;0.80;;;20.00;54.20;;;;;;4941309;29;20031;-84
2022/08/06 08:59:23;;;;;;;0.70;0.70;;;20.10;54.10;;;;;;4940942;29;20019;-84
2022/08/06 09:01:51;;;;;;;1.00;0.65;;;20.20;54.10;;;;;;4941580;29;20029;-86
2022/08/06 09:04:17;;;;;;;0.70;0.70;;;20.30;54.00;;;;;;4926230;29;20035;-85
2022/08/06 09:06:43;;;;;;;0.60;0.60;;;20.40;53.90;;;;;;4947034;29;20035;-88
2022/08/06 09:09:09;;;;;;;0.75;0.73;;;20.50;53.90;;;;;;4952291;29;20023;-84
2022/08/06 09:11:36;;;;;;;0.65;0.65;;;20.50;53.70;;;;;;4953249;29;20027;-86
2022/08/06 09:14:07;;;;;;;0.85;0.80;;;20.60;53.70;;;;;;4937298;29;20055;-93
2022/08/06 09:16:35;;;;;;;0.95;0.95;;;20.70;53.70;;;;;;4947132;29;20027;-84
2022/08/06 09:19:02;;;;;;;0.50;0.50;;;20.80;53.60;;;;;;4942219;29;20075;-83
2022/08/06 09:21:29;;;;;;;0.75;0.73;;;20.90;53.60;;;;;;4943551;29;20032;-87
2022/08/06 09:23:56;;;;;;;0.80;0.80;;;20.90;53.40;;;;;;4939112;29;20042;-82
2022/08/06 09:26:22;;;;;;;0.63;0.60;;;21.00;53.40;;;;;;4937869;29;20074;-83
2022/08/06 09:28:48;;;;;;;0.50;0.50;;;21.10;53.30;;;;;;4937088;29;20024;-85
2022/08/06 09:31:17;;;;;;;0.60;0.60;;;21.20;53.20;;;;;;4937387;29;20024;-82
2022/08/06 09:34:04;;;;;;;0.88;0.68;;;21.30;53.10;;;;;;4936988;29;20546;-87
2022/08/06 09:36:42;;;;;;;0.60;0.60;;;21.40;53.20;;;;;;4936821;29;20023;-86
2022/08/06 09:39:08;;;;;;;1.10;0.75;;;21.50;53.00;;;;;;4936637;29;20090;-85
2022/08/06 09:41:34;;;;;;;0.60;0.60;;;21.60;52.90;;;;;;4937989;29;20099;-87
2022/08/06 09:44:10;;;;;;;0.55;0.55;;;21.70;52.90;;;;;;4937160;29;20048;-84
2022/08/06 09:46:46;;;;;;;0.50;0.50;;;21.80;52.90;;;;;;4937843;29;20465;-84
2022/08/06 09:49:13;;;;;;;0.68;0.68;;;21.90;53.40;;;;;;4938573;29;20042;-85
2022/08/06 09:51:41;;;;;;;0.63;0.55;;;22.00;52.80;;;;;;4922904;29;20030;-82
2022/08/06 09:54:15;;;;;;;0.60;0.60;;;22.10;52.70;;;;;;4937350;29;20057;-85
2022/08/06 09:56:45;;;;;;;0.70;0.70;;;22.20;52.60;;;;;;4921841;29;20032;-83
2022/08/06 09:59:12;;;;;;;1.20;0.70;;;22.20;52.60;;;;;;4918553;29;20091;-82
2022/08/06 10:01:44;;;;;;;0.70;0.70;;;22.30;52.50;;;;;;4920824;29;20465;-85
2022/08/06 10:04:24;;;;;;;0.60;0.60;;;22.40;52.50;;;;;;4936709;29;20135;-84
2022/08/06 10:06:54;;;;;;;0.60;0.60;;;22.50;52.40;;;;;;4936951;29;20028;-83
2022/08/06 10:09:21;;;;;;;0.93;0.80;;;22.60;52.40;;;;;;4936955;29;20024;-84
2022/08/06 10:11:50;;;;;;;0.70;0.70;;;22.70;52.40;;;;;;4937141;29;20051;-85
2022/08/06 10:14:28;;;;;;;1.27;0.60;;;22.80;52.30;;;;;;4925059;29;20444;-83
2022/08/06 10:17:20;;;;;;;0.60;0.60;;;23.00;52.30;;;;;;4927064;29;20086;-83
2022/08/06 10:20:05;;;;;;;0.60;0.43;;;23.10;52.10;;;;;;4926755;29;20035;-82
2022/08/06 10:22:31;;;;;;;0.50;0.50;;;23.20;51.90;;;;;;4928072;29;20031;-83
2022/08/06 10:25:01;;;;;;;0.60;0.60;;;23.30;51.80;;;;;;4925414;29;20035;-88
2022/08/06 10:27:31;;;;;;;0.60;0.60;;;23.40;51.70;;;;;;4924940;29;20130;-87
2022/08/06 10:30:05;;;;;;;0.47;0.47;;;23.50;51.70;;;;;;4940654;29;20445;-85
2022/08/06 10:32:58;;;;;;;0.57;0.57;;;23.50;51.60;;;;;;4940128;29;20039;-85
2022/08/06 10:35:24;;;;;;;0.90;0.80;;;23.60;51.60;;;;;;4941380;29;20022;-85
2022/08/06 10:37:56;;;;;;;0.50;0.50;;;23.70;51.50;;;;;;4940562;29;20023;-86
2022/08/06 10:40:26;;;;;;;0.73;0.50;;;23.80;51.40;;;;;;4924679;29;20039;-86
2022/08/06 10:42:53;;;;;;;0.85;0.60;;;23.90;51.40;;;;;;4957022;29;20027;-85
2022/08/06 10:45:19;;;;;;;0.55;0.52;;;24.00;51.30;;;;;;4924614;29;20027;-84
2022/08/06 10:47:47;;;;;;;0.55;0.50;;;24.00;51.20;;;;;;4923373;29;20093;-80
2022/08/06 10:50:14;;;;;;;0.68;0.60;;;24.10;51.20;;;;;;4938936;29;20031;-86
2022/08/06 10:52:41;;;;;;;0.50;0.50;;;24.20;51.20;;;;;;4939345;29;20024;-92
2022/08/06 10:55:08;;;;;;;0.80;0.80;;;24.20;51.20;;;;;;4939734;29;20032;-84
2022/08/06 10:57:35;;;;;;;0.60;0.55;;;24.30;51.10;;;;;;4922037;29;20034;-87
2022/08/06 11:00:02;;;;;;;0.52;0.52;;;24.40;51.00;;;;;;4922900;29;20038;-91
2022/08/06 11:02:33;;;;;;;0.52;0.50;;;24.50;50.90;;;;;;4938306;29;20027;-84
2022/08/06 11:05:20;;;;;;;0.63;0.50;;;24.50;50.80;;;;;;4938182;29;20035;-87
2022/08/06 11:08:09;;;;;;;0.80;0.60;;;24.60;50.90;;;;;;4922429;29;20023;-90
2022/08/06 11:10:52;;;;;;;1.75;0.60;;;24.70;50.80;;;;;;4938409;29;20050;-84
2022/08/06 11:13:47;;;;;;;0.75;0.60;;;24.80;50.70;;;;;;4938300;29;20098;-82
2022/08/06 11:16:24;;;;;;;;;;;24.80;50.70;;;;;;4930114;29;20122;-83
2022/08/06 11:19:04;;;;;;;1.40;0.63;;;24.90;50.80;;;;;;4940499;29;20427;-84
2022/08/06 11:21:39;;;;;;;0.57;0.57;;;25.00;50.80;;;;;;4959210;29;20023;-82
2022/08/06 11:24:05;;;;;;;0.40;0.40;;;25.00;50.80;;;;;;4941796;29;20037;-85
2022/08/06 11:26:37;;;;;;;0.60;0.60;;;25.00;50.70;;;;;;4958763;29;20042;-83
2022/08/06 11:29:04;;;;;;;0.50;0.50;;;25.10;50.70;;;;;;4941791;29;20031;-88
2022/08/06 11:31:36;;;;;;;0.50;0.50;;;25.10;50.70;;;;;;4941774;29;20082;-85
2022/08/06 11:34:05;;;;;;;0.80;0.68;;;25.20;50.90;;;;;;4942532;29;20039;-84
2022/08/06 11:36:47;;;;;;;0.90;0.60;;;25.20;50.80;;;;;;4941962;29;20023;-85
2022/08/06 11:39:14;;;;;;;0.50;0.50;;;25.30;50.90;;;;;;4941858;29;20053;-84
2022/08/06 11:41:50;;;;;;;1.05;0.60;;;25.30;50.70;;;;;;4926171;29;20122;-84
2022/08/06 11:44:18;;;;;;;0.60;0.57;;;25.40;50.70;;;;;;4941965;29;20124;-84
2022/08/06 11:46:49;;;;;;;0.93;0.70;;;25.40;50.60;;;;;;4925710;29;20502;-85
2022/08/06 11:49:35;;;;;;;0.90;0.50;;;25.40;50.50;;;;;;4925833;29;20042;-85
2022/08/06 11:52:02;;;;;;;1.25;0.60;;;25.40;50.50;;;;;;4943355;29;20460;-84
2022/08/06 11:54:46;;;;;;;0.77;0.60;;;25.40;50.40;;;;;;4960379;29;20035;-85
2022/08/06 11:57:15;;;;;;;0.50;0.50;;;25.50;50.40;;;;;;4926976;29;20039;-87
2022/08/06 12:00:06;;;;;;;0.55;0.55;;;25.50;50.50;;;;;;4942306;29;20035;-87
2022/08/06 12:02:46;;;;;;;0.55;0.55;;;25.50;50.40;;;;;;4943255;29;20043;-86
2022/08/06 12:05:15;;;;;;;0.65;0.57;;;25.50;50.30;;;;;;4943061;29;20055;-86
2022/08/06 12:07:44;;;;;;;0.43;0.43;;;25.50;50.30;;;;;;4945579;29;20476;-87
2022/08/06 12:10:12;;;;;;;0.50;0.50;;;25.60;50.20;;;;;;4930580;29;20023;-88
2022/08/06 12:12:50;;;;;;;0.50;0.50;;;25.60;50.10;;;;;;4927143;29;20027;-87
2022/08/06 12:15:16;;;;;;;0.93;0.50;;;25.60;50.10;;;;;;4944297;29;20151;-88
2022/08/06 12:17:59;;;;;;;0.85;0.57;;;25.60;50.10;;;;;;4943645;29;20536;-88
2022/08/06 12:20:43;;;;;;;0.60;0.60;;;25.50;50.10;;;;;;4927127;29;20460;-87
2022/08/06 12:23:11;;;;;;;0.52;0.52;;;25.60;50.00;;;;;;4942810;29;20043;-88
2022/08/06 12:25:45;;;;;;;0.60;0.60;;;25.60;50.00;;;;;;4944297;29;20074;-88
2022/08/06 12:28:16;;;;;;;0.50;0.50;;;25.60;50.10;;;;;;4959074;29;20098;-88
2022/08/06 12:30:42;;;;;;;1.15;0.60;;;25.60;50.10;;;;;;4925813;29;20394;-88
2022/08/06 12:33:09;;;;;;;0.40;0.40;;;25.60;50.10;;;;;;4942227;29;20058;-87
2022/08/06 12:35:36;;;;;;;0.55;0.47;;;25.60;50.00;;;;;;4943386;29;20086;-88
2022/08/06 12:38:02;;;;;;;0.98;0.50;;;25.60;50.00;;;;;;4945491;29;20027;-88
2022/08/06 12:40:28;;;;;;;0.93;0.60;;;25.60;49.90;;;;;;4971614;29;20028;-89
2022/08/06 12:43:02;;;;;;;0.90;0.70;;;25.70;50.00;;;;;;4953937;29;20030;-88
2022/08/06 12:45:31;;;;;;;0.50;0.50;;;25.70;49.90;;;;;;4952281;29;20043;-89
2022/08/06 12:48:00;;;;;;;1.38;0.70;;;25.70;49.70;;;;;;4968388;29;20027;-89
2022/08/06 12:50:27;;;;;;;0.40;0.40;;;25.70;49.60;;;;;;4947845;29;20456;-89
2022/08/06 12:53:02;;;;;;;0.57;0.57;;;25.70;49.60;;;;;;4929975;29;20031;-90
2022/08/06 12:55:34;;;;;;;1.17;0.70;;;25.70;49.60;;;;;;4943384;29;20082;-88
2022/08/06 12:58:01;;;;;;;0.75;0.63;;;25.70;49.50;;;;;;4943601;29;20027;-89
2022/08/06 13:00:29;;;;;;;0.93;0.50;;;25.70;49.40;;;;;;4943421;29;20038;-89
2022/08/06 13:02:55;;;;;;;0.57;0.57;;;25.80;49.40;;;;;;4927428;29;20157;-89
2022/08/06 13:05:25;;;;;;;0.90;0.60;;;25.80;49.30;;;;;;4926339;29;20547;-88
2022/08/06 13:07:56;;;;;;;0.52;0.52;;;25.80;49.30;;;;;;4941818;29;20037;-89
2022/08/06 13:10:22;;;;;;;0.50;0.50;;;25.80;49.30;;;;;;4942041;29;20037;-90